Terminal Aerodrome Forecast
Issued by NWS

Home | Current Version | Previous Version | Text Only | Print | Product List | Glossary On
Versions: 1 2 3 4 5 6 7 8 9 10 11 12 13 14 15
000
FTUS41 KCAR 012348
TAFPQI
TAF
KPQI 012348Z 0200/0224 31010KT P6SM SKC
     FM021100 33007KT P6SM SCT250
     FM021600 03004KT P6SM BKN110
     FM021800 04005KT P6SM BKN025
     FM022000 04007KT 2SM -SN OVC015
     FM022200 04010KT 3/4SM -SN BLSN OVC007
      AMD LTD TO CLD VIS AND WIND=

USA.gov is the U.S. government's official web portal to all federal, state and local government web resources and services.